Time;durP1;ratioP1;P1;durP2;ratioP2;P2;SDS_P1;SDS_P2;PMS_P1;PMS_P2;Temp;Humidity;BMP_temperature;BMP_pressure;BME280_temperature;BME280_humidity;BME280_pressure;Samples;Min_cycle;Max_cycle;Signal;HPM_P1;HPM_P2
2023/05/05 00:01:00;;;;;;;4.90;3.37;;;;;;;14.53;100.00;99003.41;4983267;28;20706;-77
2023/05/05 00:03:29;;;;;;;6.07;3.37;;;;;;;14.29;100.00;99008.06;4990617;28;20210;-77
2023/05/05 00:05:57;;;;;;;5.40;3.43;;;;;;;14.27;100.00;99000.16;4930031;29;20201;-77
2023/05/05 00:08:28;;;;;;;6.17;3.53;;;;;;;14.28;100.00;99003.66;4929776;29;20288;-78
2023/05/05 00:10:56;;;;;;;4.40;3.07;;;;;;;14.26;100.00;98994.97;4927232;29;20293;-77
2023/05/05 00:13:25;;;;;;;4.33;3.53;;;;;;;14.36;100.00;98995.06;4930962;29;20197;-77
2023/05/05 00:15:55;;;;;;;6.77;3.83;;;;;;;14.18;100.00;98992.91;4929480;29;20193;-77
2023/05/05 00:18:23;;;;;;;7.33;3.93;;;;;;;14.15;100.00;98993.19;4931218;29;20221;-77
2023/05/05 00:20:52;;;;;;;5.13;4.30;;;;;;;14.20;100.00;98992.81;4930941;29;20534;-77
2023/05/05 00:23:20;;;;;;;7.00;4.33;;;;;;;14.25;100.00;98994.13;4932263;29;20208;-77
2023/05/05 00:25:50;;;;;;;6.47;4.87;;;;;;;14.24;100.00;98994.25;4925336;29;20205;-78
2023/05/05 00:28:19;;;;;;;9.03;5.10;;;;;;;14.09;100.00;98988.38;4933432;29;20197;-77
2023/05/05 00:30:47;;;;;;;8.03;5.83;;;;;;;14.10;100.00;98986.56;4957272;28;20191;-77
2023/05/05 00:33:16;;;;;;;6.87;5.67;;;;;;;14.21;100.00;98989.19;4993526;28;20205;-77
2023/05/05 00:35:44;;;;;;;7.10;6.07;;;;;;;14.20;100.00;98983.00;4984665;28;20199;-77
2023/05/05 00:38:13;;;;;;;8.33;5.80;;;;;;;14.18;100.00;98984.94;4985096;28;20231;-77
2023/05/05 00:40:41;;;;;;;7.63;5.97;;;;;;;13.88;100.00;98996.25;4984585;28;20199;-77
2023/05/05 00:43:11;;;;;;;7.57;5.03;;;;;;;13.94;100.00;98987.78;4982456;28;20261;-78
2023/05/05 00:45:46;;;;;;;5.90;4.97;;;;;;;14.12;100.00;98989.94;4989815;28;20191;-78
2023/05/05 00:48:15;;;;;;;7.73;4.80;;;;;;;14.15;100.00;98987.84;4988572;28;20277;-78
2023/05/05 00:50:44;;;;;;;5.17;4.67;;;;;;;14.18;100.00;98984.94;4989279;28;20202;-78
2023/05/05 00:53:14;;;;;;;6.53;4.13;;;;;;;14.29;100.00;98992.91;4929521;29;20205;-78
2023/05/05 00:55:42;;;;;;;9.20;5.30;;;;;;;14.20;100.00;98980.34;4925781;29;20598;-78
2023/05/05 00:58:12;;;;;;;6.67;4.60;;;;;;;14.16;100.00;98981.56;4928354;29;20275;-78
2023/05/05 01:00:41;;;;;;;6.60;4.47;;;;;;;14.25;100.00;98986.13;4930271;29;20280;-77
2023/05/05 01:03:11;;;;;;;4.17;3.60;;;;;;;14.36;100.00;98985.25;4925451;29;20201;-78
2023/05/05 01:05:55;;;;;;;5.27;3.70;;;;;;;14.17;100.00;98982.41;4929150;29;20271;-77
2023/05/05 01:08:37;;;;;;;7.60;4.30;;;;;;;14.13;100.00;98975.63;4931394;29;20248;-78
2023/05/05 01:11:14;;;;;;;6.57;4.63;;;;;;;14.27;100.00;98980.66;4933582;29;20205;-77
2023/05/05 01:13:50;;;;;;;5.80;4.63;;;;;;;14.17;100.00;98977.91;4933940;29;20208;-77
2023/05/05 01:16:22;;;;;;;4.90;4.33;;;;;;;13.99;100.00;98977.63;4929782;29;20200;-77
2023/05/05 01:18:56;;;;;;;5.53;4.00;;;;;;;14.02;100.00;98981.84;4984441;28;20227;-77
2023/05/05 01:21:30;;;;;;;5.27;3.50;;;;;;;14.10;100.00;98976.75;4991224;28;20203;-78
2023/05/05 01:24:23;;;;;;;6.10;4.13;;;;;;;14.09;100.00;98975.06;4989138;28;20187;-78
2023/05/05 01:27:01;;;;;;;5.83;3.90;;;;;;;14.06;100.00;98975.28;4991137;28;20203;-77
2023/05/05 01:29:49;;;;;;;6.47;4.00;;;;;;;13.98;100.00;98978.56;4992942;28;20614;-77
2023/05/05 01:32:25;;;;;;;4.17;3.73;;;;;;;13.98;100.00;98967.91;4991628;28;20195;-78
2023/05/05 01:34:59;;;;;;;4.53;3.90;;;;;;;14.05;100.00;98965.59;4990118;28;20204;-77
2023/05/05 01:37:32;;;;;;;5.03;3.63;;;;;;;14.10;100.00;98965.25;4991449;28;20249;-78
2023/05/05 01:40:06;;;;;;;5.67;4.07;;;;;;;14.25;100.00;98967.47;4993588;28;20246;-78
2023/05/05 01:42:38;;;;;;;6.53;4.17;;;;;;;14.18;100.00;98963.63;4996267;28;20206;-77
2023/05/05 01:45:09;;;;;;;5.77;3.90;;;;;;;14.10;100.00;98955.44;4989755;28;20242;-78
2023/05/05 01:47:44;;;;;;;7.67;3.90;;;;;;;14.21;100.00;98954.56;4992073;28;20195;-77
2023/05/05 01:50:16;;;;;;;7.50;4.67;;;;;;;14.16;100.00;98946.94;4989270;28;20187;-78
2023/05/05 01:52:46;;;;;;;5.70;5.07;;;;;;;14.16;100.00;98944.25;4991640;28;20187;-77
2023/05/05 01:55:17;;;;;;;7.67;4.67;;;;;;;14.02;100.00;98948.06;4990066;28;20188;-77
2023/05/05 01:57:49;;;;;;;6.63;4.30;;;;;;;14.07;100.00;98952.16;4992640;28;20219;-78
2023/05/05 02:00:19;;;;;;;6.23;4.23;;;;;;;14.12;100.00;98939.31;4993797;28;20239;-77
2023/05/05 02:02:50;;;;;;;6.67;4.20;;;;;;;14.02;100.00;98945.41;4992326;28;20238;-77
2023/05/05 02:05:21;;;;;;;6.57;4.50;;;;;;;13.85;100.00;98951.25;4997878;28;20328;-78
2023/05/05 02:07:50;;;;;;;5.10;4.07;;;;;;;13.87;100.00;98957.28;4988594;28;20274;-78
2023/05/05 02:10:19;;;;;;;4.70;4.13;;;;;;;13.82;100.00;98948.00;4962074;28;20199;-77
2023/05/05 02:12:48;;;;;;;5.20;4.13;;;;;;;13.84;100.00;98948.72;4995806;28;20249;-78
2023/05/05 02:15:17;;;;;;;5.93;4.73;;;;;;;13.92;100.00;98947.13;4990967;28;20207;-78
2023/05/05 02:17:48;;;;;;;5.20;4.47;;;;;;;13.94;100.00;98944.34;4990270;28;20326;-78
2023/05/05 02:20:18;;;;;;;4.83;4.30;;;;;;;13.87;100.00;98943.13;4990486;28;20203;-78
2023/05/05 02:22:47;;;;;;;6.40;5.00;;;;;;;13.68;100.00;98943.75;4989195;28;20195;-78
2023/05/05 02:25:16;;;;;;;5.60;4.90;;;;;;;13.68;100.00;98938.44;4989403;28;20249;-78
2023/05/05 02:27:48;;;;;;;4.60;4.10;;;;;;;13.45;100.00;98940.28;4987289;28;20199;-77
2023/05/05 02:30:19;;;;;;;6.53;4.30;;;;;;;13.60;100.00;98936.38;4995433;28;20196;-77
2023/05/05 02:32:56;;;;;;;5.13;4.50;;;;;;;13.46;100.00;98936.66;4991192;28;20314;-77
2023/05/05 02:35:28;;;;;;;6.37;4.33;;;;;;;13.37;100.00;98942.69;4995106;28;20195;-77
2023/05/05 02:38:01;;;;;;;6.63;4.20;;;;;;;13.17;100.00;98947.75;4989624;28;20215;-78
2023/05/05 02:40:33;;;;;;;4.83;4.33;;;;;;;13.25;100.00;98941.84;4995143;28;20230;-78
2023/05/05 02:43:06;;;;;;;4.77;4.23;;;;;;;13.31;100.00;98952.00;4988669;28;20199;-77
2023/05/05 02:45:34;;;;;;;7.33;4.20;;;;;;;13.15;100.00;98962.97;4929753;29;20205;-78
2023/05/05 02:48:05;;;;;;;4.73;4.20;;;;;;;13.08;100.00;98959.09;4926002;29;20205;-78
2023/05/05 02:50:34;;;;;;;6.30;4.33;;;;;;;12.92;100.00;98969.19;4922914;29;20211;-77
2023/05/05 02:53:02;;;;;;;5.87;4.40;;;;;;;12.81;100.00;98974.50;4926152;29;20260;-78
2023/05/05 02:55:37;;;;;;;5.00;4.50;;;;;;;12.82;100.00;98968.22;4932556;29;20193;-78
2023/05/05 02:58:07;;;;;;;4.80;3.87;;;;;;;12.91;100.00;98975.50;4928803;29;20254;-78
2023/05/05 03:00:43;;;;;;;6.47;4.07;;;;;;;12.94;100.00;98969.97;4934474;29;20232;-78
2023/05/05 03:03:18;;;;;;;5.60;4.50;;;;;;;13.07;100.00;98976.00;4943735;28;20273;-77
2023/05/05 03:05:52;;;;;;;5.00;4.33;;;;;;;12.89;100.00;98983.59;4994738;28;20230;-77
2023/05/05 03:08:28;;;;;;;4.43;3.80;;;;;;;12.79;100.00;98973.78;4984172;28;20206;-78
2023/05/05 03:11:00;;;;;;;6.83;4.10;;;;;;;12.84;100.00;98980.44;4986024;28;20213;-77
2023/05/05 03:13:30;;;;;;;6.77;4.03;;;;;;;12.94;100.00;98985.06;4994584;28;20195;-77
2023/05/05 03:16:03;;;;;;;6.37;3.93;;;;;;;12.89;100.00;98980.09;4994495;28;20195;-78
2023/05/05 03:18:36;;;;;;;7.93;4.33;;;;;;;12.98;100.00;98990.00;4987957;28;20421;-77
2023/05/05 03:21:08;;;;;;;6.03;3.70;;;;;;;12.96;100.00;98991.94;4991490;28;20199;-77
2023/05/05 03:23:36;;;;;;;6.00;3.87;;;;;;;12.95;100.00;98984.09;4990549;28;20210;-78
2023/05/05 03:26:04;;;;;;;7.10;4.37;;;;;;;13.06;100.00;98982.31;4985062;28;20207;-77
2023/05/05 03:28:33;;;;;;;7.20;4.00;;;;;;;12.96;100.00;98978.66;4991291;28;20700;-78
2023/05/05 03:31:02;;;;;;;5.97;3.93;;;;;;;13.04;100.00;98986.91;4987364;28;20214;-78
2023/05/05 03:33:32;;;;;;;5.13;3.70;;;;;;;12.99;100.00;98977.56;4989002;28;20202;-77
2023/05/05 03:36:02;;;;;;;6.63;4.43;;;;;;;12.90;100.00;98981.78;4991187;28;20274;-78
2023/05/05 03:38:30;;;;;;;4.67;4.17;;;;;;;12.78;100.00;98982.72;4986996;28;20319;-78
2023/05/05 03:41:01;;;;;;;5.60;3.83;;;;;;;12.87;100.00;98976.69;4994185;28;20283;-77
2023/05/05 03:43:30;;;;;;;7.97;3.93;;;;;;;12.97;100.00;98974.19;4987514;28;20203;-77
2023/05/05 03:45:58;;;;;;;6.07;4.03;;;;;;;12.95;100.00;98973.47;4988784;28;20677;-78
2023/05/05 03:48:27;;;;;;;5.87;3.90;;;;;;;13.02;100.00;98982.63;4988189;28;20278;-78
2023/05/05 03:50:57;;;;;;;6.53;3.97;;;;;;;12.95;100.00;98974.31;4989935;28;20207;-77
2023/05/05 03:53:25;;;;;;;5.03;3.80;;;;;;;13.03;100.00;98989.69;4985656;28;20191;-77
2023/05/05 03:55:55;;;;;;;4.80;3.83;;;;;;;12.91;100.00;98986.13;4988490;28;20203;-78
2023/05/05 03:58:23;;;;;;;4.70;3.60;;;;;;;12.89;100.00;98985.41;4989628;28;20581;-77
2023/05/05 04:00:51;;;;;;;5.30;4.00;;;;;;;12.71;100.00;98989.44;4985970;28;20243;-77
2023/05/05 04:03:19;;;;;;;7.50;3.80;;;;;;;12.53;100.00;98986.34;4988130;28;20210;-77
2023/05/05 04:05:48;;;;;;;6.93;3.93;;;;;;;12.43;100.00;98993.31;4986804;28;20250;-78
2023/05/05 04:08:18;;;;;;;6.43;4.37;;;;;;;12.53;100.00;98991.66;4989486;28;20717;-77
2023/05/05 04:10:46;;;;;;;7.70;4.03;;;;;;;12.45;100.00;98997.59;4993709;28;20203;-77
2023/05/05 04:13:15;;;;;;;5.03;4.13;;;;;;;12.62;100.00;98993.63;4984100;28;20265;-77
2023/05/05 04:15:47;;;;;;;5.57;3.80;;;;;;;12.56;100.00;98999.44;4988073;28;20261;-77
2023/05/05 04:18:15;;;;;;;5.73;4.10;;;;;;;12.68;100.00;98997.66;4987053;28;20230;-77
2023/05/05 04:20:43;;;;;;;4.90;3.83;;;;;;;12.53;100.00;99003.16;4985753;28;20223;-78
2023/05/05 04:23:11;;;;;;;5.13;4.03;;;;;;;12.43;100.00;99007.44;4992222;28;20211;-78
2023/05/05 04:25:41;;;;;;;6.87;4.00;;;;;;;12.41;100.00;99004.06;4990450;28;20206;-77
2023/05/05 04:28:09;;;;;;;6.27;3.80;;;;;;;12.46;100.00;98999.28;4993323;28;20199;-78
2023/05/05 04:30:37;;;;;;;5.20;3.83;;;;;;;12.59;100.00;99005.34;4990547;28;20654;-78
2023/05/05 04:33:06;;;;;;;6.00;4.30;;;;;;;12.54;100.00;99004.00;4986487;28;20254;-78
2023/05/05 04:35:34;;;;;;;6.00;3.67;;;;;;;12.63;100.00;98999.81;4986920;28;20194;-78
2023/05/05 04:38:02;;;;;;;5.53;4.00;;;;;;;12.65;100.00;99001.41;4985087;28;20704;-77
2023/05/05 04:40:31;;;;;;;7.63;4.20;;;;;;;12.63;100.00;99010.44;4985928;28;20685;-77
2023/05/05 04:43:00;;;;;;;5.43;3.73;;;;;;;12.56;100.00;99002.94;4990054;28;20198;-78
2023/05/05 04:45:29;;;;;;;6.57;4.87;;;;;;;12.78;100.00;99006.63;4992912;28;20203;-78
2023/05/05 04:47:57;;;;;;;8.47;5.03;;;;;;;12.85;100.00;99011.38;4991211;28;20202;-77
2023/05/05 04:50:25;;;;;;;6.67;4.97;;;;;;;13.00;100.00;99009.34;4997251;28;20199;-77
2023/05/05 04:52:55;;;;;;;4.80;4.27;;;;;;;13.07;100.00;99015.91;4990475;28;20201;-77
2023/05/05 04:55:23;;;;;;;6.40;4.70;;;;;;;13.07;100.00;99012.41;4990997;28;20290;-78
2023/05/05 04:57:51;;;;;;;8.47;4.97;;;;;;;13.04;100.00;99018.81;4994394;28;20203;-78
2023/05/05 05:00:22;;;;;;;7.53;4.90;;;;;;;12.95;100.00;99016.84;4994023;28;20843;-77
2023/05/05 05:02:51;;;;;;;9.50;6.00;;;;;;;12.71;100.00;99019.53;4943837;28;20191;-78
2023/05/05 05:05:20;;;;;;;6.10;5.50;;;;;;;12.85;100.00;99023.81;4988931;28;20230;-78
2023/05/05 05:07:48;;;;;;;9.00;5.70;;;;;;;12.89;100.00;99028.78;4992585;28;20195;-78
2023/05/05 05:10:17;;;;;;;6.83;5.70;;;;;;;13.05;100.00;99020.50;4993942;28;20191;-78
2023/05/05 05:12:47;;;;;;;6.40;5.00;;;;;;;13.13;100.00;99015.44;4987992;28;20254;-78
2023/05/05 05:15:16;;;;;;;8.60;5.07;;;;;;;13.09;100.00;99024.59;4990814;28;20202;-79
2023/05/05 05:17:46;;;;;;;7.60;4.97;;;;;;;13.39;100.00;99023.22;4985600;28;20203;-78
2023/05/05 05:20:14;;;;;;;7.33;4.90;;;;;;;13.41;100.00;99031.94;4985527;28;20227;-78
2023/05/05 05:22:42;;;;;;;7.03;5.10;;;;;;;13.41;100.00;99029.28;4992792;28;20195;-77
2023/05/05 05:25:10;;;;;;;9.43;4.90;;;;;;;13.55;100.00;99038.88;4993681;28;20207;-78
2023/05/05 05:27:42;;;;;;;6.80;5.00;;;;;;;13.21;100.00;99044.13;4993913;28;20187;-77
2023/05/05 05:30:11;;;;;;;8.73;5.00;;;;;;;13.42;100.00;99041.63;4994371;28;20786;-77
2023/05/05 05:32:39;;;;;;;8.93;5.10;;;;;;;13.49;100.00;99036.66;4936252;29;20244;-78
2023/05/05 05:35:12;;;;;;;6.03;4.40;;;;;;;13.81;100.00;99034.16;4936323;29;20196;-78
2023/05/05 05:37:41;;;;;;;7.67;4.73;;;;;;;13.91;100.00;99038.63;4932726;29;20363;-77
2023/05/05 05:40:10;;;;;;;7.70;4.57;;;;;;;13.95;100.00;99040.06;4933804;29;20221;-77
2023/05/05 05:42:38;;;;;;;5.97;4.50;;;;;;;13.93;100.00;99042.00;4877731;29;20262;-77
2023/05/05 05:45:08;;;;;;;5.60;4.10;;;;;;;13.98;100.00;99042.47;4875118;29;20220;-78
2023/05/05 05:47:37;;;;;;;5.70;4.00;;;;;;;14.09;100.00;99044.31;4875095;29;20207;-77
2023/05/05 05:50:07;;;;;;;6.10;4.30;;;;;;;14.11;100.00;99050.34;4875537;29;20211;-78
2023/05/05 05:52:37;;;;;;;9.23;4.80;;;;;;;14.29;100.00;99048.88;4868566;29;20275;-78
2023/05/05 05:55:07;;;;;;;5.27;4.40;;;;;;;14.55;100.00;99051.25;4875086;29;20207;-78
2023/05/05 05:57:36;;;;;;;7.70;4.97;;;;;;;14.41;100.00;99052.34;4892005;29;20216;-78
2023/05/05 06:00:06;;;;;;;8.03;4.63;;;;;;;14.53;100.00;99058.53;4910578;29;20281;-78
2023/05/05 06:02:35;;;;;;;6.30;3.80;;;;;;;14.62;100.00;99055.09;4908621;29;20205;-77
2023/05/05 06:05:03;;;;;;;5.17;4.00;;;;;;;14.78;100.00;99060.03;4910863;29;20198;-78
2023/05/05 06:07:31;;;;;;;7.03;4.07;;;;;;;15.15;100.00;99068.44;4952646;28;20257;-77
2023/05/05 06:10:02;;;;;;;6.10;3.97;;;;;;;14.91;100.00;99076.69;4987263;28;20238;-78
2023/05/05 06:12:50;;;;;;;5.33;4.00;;;;;;;14.65;100.00;99067.31;4995581;28;20293;-78
2023/05/05 06:15:18;;;;;;;8.30;4.33;;;;;;;14.65;100.00;99070.00;4987988;28;20221;-78
2023/05/05 06:17:46;;;;;;;5.80;3.73;;;;;;;14.88;100.00;99067.13;4995573;28;20191;-77
2023/05/05 06:20:15;;;;;;;5.20;4.17;;;;;;;15.04;100.00;99066.69;4990199;28;20215;-77
2023/05/05 06:22:43;;;;;;;8.13;4.23;;;;;;;15.23;100.00;99070.47;4982140;28;20199;-78
2023/05/05 06:25:12;;;;;;;8.13;3.77;;;;;;;15.31;100.00;99068.00;4989386;28;20199;-77
2023/05/05 06:27:41;;;;;;;6.27;3.97;;;;;;;15.38;100.00;99062.00;4985181;28;20206;-78
2023/05/05 06:30:10;;;;;;;5.57;4.40;;;;;;;15.50;100.00;99060.13;4992126;28;20250;-78
2023/05/05 06:32:38;;;;;;;4.93;3.60;;;;;;;15.55;100.00;99065.06;4995240;28;20207;-78
2023/05/05 06:35:08;;;;;;;5.80;4.23;;;;;;;15.62;100.00;99060.91;4991552;28;20207;-77
2023/05/05 06:37:36;;;;;;;8.97;4.27;;;;;;;15.53;100.00;99062.50;4986902;28;20338;-77
2023/05/05 06:40:06;;;;;;;4.37;3.90;;;;;;;15.47;100.00;99068.41;4989589;28;20654;-78
2023/05/05 06:42:36;;;;;;;4.97;3.63;;;;;;;15.67;100.00;99074.72;4992287;28;20203;-77
2023/05/05 06:45:05;;;;;;;7.47;4.20;;;;;;;15.82;100.00;99073.38;4992323;28;20191;-78
2023/05/05 06:47:34;;;;;;;6.97;3.80;;;;;;;15.76;100.00;99073.09;4984950;28;20199;-78
2023/05/05 06:50:02;;;;;;;4.90;3.70;;;;;;;16.06;100.00;99073.06;4987047;28;20211;-77
2023/05/05 06:52:30;;;;;;;10.00;4.70;;;;;;;16.06;100.00;99073.06;4984074;28;20210;-78
2023/05/05 06:54:59;;;;;;;4.60;4.10;;;;;;;16.27;100.00;99065.81;4988131;28;20251;-78
2023/05/05 06:57:27;;;;;;;5.77;4.03;;;;;;;16.33;100.00;99063.59;4987223;28;20203;-78
2023/05/05 06:59:56;;;;;;;6.03;3.87;;;;;;;16.56;100.00;99065.88;4994889;28;20319;-78
2023/05/05 07:02:24;;;;;;;5.87;4.10;;;;;;;16.58;100.00;99063.91;4991584;28;20294;-78
2023/05/05 07:04:54;;;;;;;4.43;3.93;;;;;;;16.57;100.00;99058.69;4994094;28;20206;-78
2023/05/05 07:07:23;;;;;;;5.57;4.07;;;;;;;16.54;100.00;99064.34;4984442;28;20195;-77
2023/05/05 07:09:51;;;;;;;5.80;4.33;;;;;;;16.74;100.00;99060.72;4984286;28;20199;-78
2023/05/05 07:12:20;;;;;;;7.40;4.20;;;;;;;16.65;100.00;99072.22;4988075;28;20218;-78
2023/05/05 07:14:49;;;;;;;4.83;4.13;;;;;;;16.83;100.00;99062.56;4988106;28;20206;-78
2023/05/05 07:17:18;;;;;;;5.77;4.20;;;;;;;16.86;100.00;99058.75;4989214;28;20662;-77
2023/05/05 07:19:47;;;;;;;6.50;4.20;;;;;;;17.06;100.00;99057.75;4983016;28;20207;-77
2023/05/05 07:22:15;;;;;;;5.83;3.73;;;;;;;17.15;100.00;99061.44;4988352;28;20249;-77
2023/05/05 07:24:44;;;;;;;7.40;4.53;;;;;;;16.94;100.00;99052.72;4988105;28;20195;-78
2023/05/05 07:27:12;;;;;;;6.70;4.50;;;;;;;17.13;100.00;99052.69;4994289;28;20224;-78
2023/05/05 07:29:41;;;;;;;7.63;4.50;;;;;;;17.25;100.00;99048.03;4985121;28;20195;-78
2023/05/05 07:32:09;;;;;;;6.67;4.27;;;;;;;17.40;100.00;99052.81;4983576;28;20211;-78
2023/05/05 07:34:39;;;;;;;6.80;4.33;;;;;;;17.59;100.00;99046.56;4990023;28;20207;-78
2023/05/05 07:37:08;;;;;;;9.87;4.77;;;;;;;17.68;100.00;99050.19;4983339;28;20199;-78
2023/05/05 07:39:36;;;;;;;6.60;4.87;;;;;;;17.82;100.00;99052.44;4990257;28;20261;-78
2023/05/05 07:42:05;;;;;;;5.47;4.57;;;;;;;17.88;100.00;99056.38;4990822;28;20231;-78
2023/05/05 07:44:33;;;;;;;4.87;4.07;;;;;;;17.96;100.00;99061.84;4987751;28;20187;-77
2023/05/05 07:47:02;;;;;;;5.90;4.47;;;;;;;17.76;100.00;99061.06;4984717;28;20207;-77
2023/05/05 07:49:30;;;;;;;6.27;5.27;;;;;;;17.48;100.00;99064.63;4987856;28;20202;-78
2023/05/05 07:52:00;;;;;;;6.17;5.03;;;;;;;17.15;100.00;99058.75;4987957;28;20238;-78
2023/05/05 07:54:28;;;;;;;6.50;4.97;;;;;;;17.37;100.00;99062.94;4985950;28;20641;-78
2023/05/05 07:56:57;;;;;;;8.00;5.10;;;;;;;17.53;100.00;99059.69;4987725;28;20685;-78
2023/05/05 07:59:25;;;;;;;5.83;5.23;;;;;;;17.80;100.00;99059.78;4988119;28;20231;-78
2023/05/05 08:01:53;;;;;;;10.70;5.43;;;;;;;17.60;100.00;99063.47;4988197;28;20223;-78
2023/05/05 08:04:21;;;;;;;9.87;6.10;;;;;;;17.96;100.00;99061.84;4989026;28;20257;-77
2023/05/05 08:06:49;;;;;;;6.73;5.37;;;;;;;18.26;100.00;99068.75;4993618;28;20199;-78
2023/05/05 08:09:19;;;;;;;7.80;6.13;;;;;;;18.16;100.00;99067.97;4983240;28;20203;-78
2023/05/05 08:11:48;;;;;;;8.33;6.00;;;;;;;18.32;100.00;99073.50;4986383;28;20191;-78
2023/05/05 08:14:18;;;;;;;6.87;6.00;;;;;;;18.30;100.00;99086.22;4989466;28;20250;-78
2023/05/05 08:16:47;;;;;;;8.43;6.00;;;;;;;18.08;100.00;99081.25;4985468;28;20211;-78
2023/05/05 08:19:16;;;;;;;10.53;8.30;;;;;;;18.38;100.00;99075.59;4989758;28;20196;-77
2023/05/05 08:21:56;;;;;;;9.50;6.60;;;;;;;18.51;100.00;99078.75;4986215;28;20241;-78
2023/05/05 08:24:29;;;;;;;10.70;7.00;;;;;;;18.48;100.00;99075.53;4990976;28;20205;-78
2023/05/05 08:26:58;;;;;;;7.07;6.37;;;;;;;18.70;100.00;99077.81;4990590;28;20195;-78
2023/05/05 08:29:26;;;;;;;14.70;6.83;;;;;;;18.92;100.00;99083.75;4986614;28;20253;-78
2023/05/05 08:31:55;;;;;;;8.70;6.37;;;;;;;19.17;100.00;99072.22;4986793;28;20238;-78
2023/05/05 08:34:25;;;;;;;8.30;6.50;;;;;;;19.07;100.00;99082.22;4993181;28;20198;-78
2023/05/05 08:36:53;;;;;;;10.93;6.63;;;;;;;19.21;100.00;99070.94;4984982;28;20228;-78
2023/05/05 08:39:22;;;;;;;11.53;7.13;;;;;;;19.29;100.00;99072.81;4989569;28;20206;-78
2023/05/05 08:41:52;;;;;;;9.50;6.63;;;;;;;19.33;100.00;99069.69;4982006;28;20681;-78
2023/05/05 08:44:21;;;;;;;9.80;7.23;;;;;;;19.52;100.00;99067.81;4989039;28;20234;-79
2023/05/05 08:46:50;;;;;;;8.50;7.03;;;;;;;19.65;100.00;99071.78;4988001;28;20654;-78
2023/05/05 08:49:19;;;;;;;9.37;6.90;;;;;;;19.89;100.00;99064.88;4989404;28;20195;-78
2023/05/05 08:51:52;;;;;;;7.90;7.00;;;;;;;20.00;100.00;99065.44;4990599;28;20258;-79
2023/05/05 08:54:23;;;;;;;9.73;7.20;;;;;;;20.03;100.00;99080.41;4984849;28;20191;-79
2023/05/05 08:56:53;;;;;;;8.10;7.30;;;;;;;20.21;100.00;99075.78;4993380;28;20242;-79
2023/05/05 08:59:24;;;;;;;8.70;7.13;;;;;;;20.24;100.00;99069.22;4987918;28;20199;-79
2023/05/05 09:01:54;;;;;;;9.97;7.27;;;;;;;20.65;100.00;99072.94;4984858;28;20745;-79
2023/05/05 09:04:22;;;;;;;9.60;7.57;;;;;;;20.80;100.00;99073.97;4986517;28;20199;-79
2023/05/05 09:06:51;;;;;;;9.35;7.45;;;;;;;21.00;100.00;99071.81;4987942;28;20213;-79
2023/05/05 09:09:20;;;;;;;9.07;7.57;;;;;;;20.99;100.00;99069.31;4992044;28;20203;-79
2023/05/05 09:11:48;;;;;;;7.95;7.07;;;;;;;21.38;99.54;99064.13;4992872;28;20219;-79
2023/05/05 09:14:19;;;;;;;8.05;7.18;;;;;;;21.37;99.29;99068.66;4985645;28;20196;-79
2023/05/05 09:16:47;;;;;;;10.43;8.13;;;;;;;21.23;100.00;99066.63;4989204;28;20744;-79
2023/05/05 09:19:16;;;;;;;11.07;7.30;;;;;;;21.52;100.00;99062.56;4987756;28;20192;-79
2023/05/05 09:21:48;;;;;;;10.43;8.65;;;;;;;21.27;100.00;99065.31;4986686;28;20222;-79
2023/05/05 09:24:17;;;;;;;8.15;7.35;;;;;;;21.52;100.00;99065.28;4987643;28;20207;-79
2023/05/05 09:26:48;;;;;;;10.20;7.05;;;;;;;21.30;100.00;99058.72;4983324;28;20203;-79
2023/05/05 09:29:22;;;;;;;9.02;7.43;;;;;;;21.71;99.43;99057.69;4993799;28;20214;-79
2023/05/05 09:32:08;;;;;;;9.00;6.60;;;;;;;22.27;96.75;99055.00;4992678;28;20250;-79
2023/05/05 09:34:38;;;;;;;9.98;7.30;;;;;;;22.07;99.66;99061.81;4996421;28;20226;-80
2023/05/05 09:37:06;;;;;;;10.90;7.80;;;;;;;21.52;100.00;99058.06;4988523;28;20261;-79
2023/05/05 09:39:34;;;;;;;10.80;7.78;;;;;;;21.94;100.00;99048.84;4993878;28;20207;-79
2023/05/05 09:42:03;;;;;;;8.90;7.65;;;;;;;21.97;100.00;99048.50;4990697;28;20678;-80
2023/05/05 09:44:36;;;;;;;10.02;7.78;;;;;;;22.34;99.35;99038.94;4962533;28;20187;-80
2023/05/05 09:47:05;;;;;;;11.63;7.03;;;;;;;22.43;98.22;99044.13;4987690;28;20203;-79
2023/05/05 09:49:57;;;;;;;9.93;6.82;;;;;;;22.64;97.08;99045.34;4993274;28;20277;-78
2023/05/05 09:52:26;;;;;;;9.32;6.93;;;;;;;22.70;96.63;99050.06;4990716;28;20210;-78
2023/05/05 09:54:55;;;;;;;7.57;6.65;;;;;;;22.51;98.24;99045.94;4993349;28;20251;-78
2023/05/05 09:57:28;;;;;;;7.78;6.97;;;;;;;22.40;99.34;99039.09;4993497;28;20195;-78
2023/05/05 10:00:00;;;;;;;9.90;7.63;;;;;;;22.23;100.00;99035.63;4995804;28;20219;-77
2023/05/05 10:02:33;;;;;;;8.63;6.88;;;;;;;22.66;100.00;99036.06;4990594;28;20270;-77
2023/05/05 10:05:06;;;;;;;7.70;6.90;;;;;;;22.95;96.42;99032.66;4987019;28;20206;-78
2023/05/05 10:07:36;;;;;;;7.35;6.35;;;;;;;22.37;98.68;99036.72;4990742;28;20282;-78
2023/05/05 10:10:06;;;;;;;7.00;6.22;;;;;;;22.80;96.10;99027.19;4993185;28;20202;-78
2023/05/05 10:12:36;;;;;;;9.15;6.40;;;;;;;22.59;99.16;99023.47;4989982;28;20219;-78
2023/05/05 10:15:09;;;;;;;11.65;7.30;;;;;;;22.49;99.65;99031.78;4988123;28;20199;-78
2023/05/05 10:17:44;;;;;;;8.52;6.30;;;;;;;22.59;100.00;99023.47;4992533;28;20234;-78
2023/05/05 10:20:33;;;;;;;6.57;5.70;;;;;;;22.04;100.00;99022.50;4995402;28;20187;-78
2023/05/05 10:23:05;;;;;;;6.93;5.47;;;;;;;22.89;97.91;99024.47;4984917;28;20226;-79
2023/05/05 10:25:39;;;;;;;6.95;5.82;;;;;;;22.47;95.85;99023.00;4988257;28;20203;-78
2023/05/05 10:28:14;;;;;;;9.90;7.15;;;;;;;22.90;98.91;99016.19;4935337;29;20193;-78
2023/05/05 10:30:49;;;;;;;11.85;7.78;;;;;;;23.42;94.42;99009.97;4935441;29;20304;-79
2023/05/05 10:33:23;;;;;;;7.72;7.03;;;;;;;23.75;91.35;99007.81;4930216;29;20203;-78
2023/05/05 10:36:02;;;;;;;11.07;7.72;;;;;;;23.85;89.45;99005.66;4933791;29;20325;-78
2023/05/05 10:38:30;;;;;;;8.55;7.75;;;;;;;23.77;89.97;99007.63;4928467;29;20672;-79
2023/05/05 10:41:00;;;;;;;10.88;8.00;;;;;;;23.66;91.63;99000.81;4927968;29;20208;-78
2023/05/05 10:43:30;;;;;;;9.80;7.10;;;;;;;23.83;92.30;99001.44;4932717;29;20225;-79
2023/05/05 10:46:01;;;;;;;10.38;7.80;;;;;;;23.69;87.57;99001.28;4953110;28;20206;-78
2023/05/05 10:48:38;;;;;;;9.75;8.60;;;;;;;23.75;87.88;98988.88;4993240;28;20203;-79
2023/05/05 10:51:21;;;;;;;12.38;7.93;;;;;;;22.50;95.03;99004.63;4990722;28;20210;-80
2023/05/05 10:54:11;;;;;;;9.43;7.10;;;;;;;22.43;100.00;99000.09;4993994;28;20206;-80
2023/05/05 10:56:41;;;;;;;9.57;7.90;;;;;;;22.69;99.63;98997.91;4995118;28;20498;-79
2023/05/05 10:59:39;;;;;;;10.48;8.55;;;;;;;23.21;96.12;98989.06;4990632;28;20253;-79
2023/05/05 11:02:30;;;;;;;10.85;8.02;;;;;;;23.30;94.94;98992.53;4992167;28;20203;-81
2023/05/05 11:05:21;;;;;;;10.90;8.75;;;;;;;22.94;97.73;98987.78;4988009;28;20191;-79
2023/05/05 11:07:51;;;;;;;10.85;7.93;;;;;;;23.72;94.23;98981.13;4990058;28;20199;-80
2023/05/05 11:10:22;;;;;;;8.43;7.55;;;;;;;24.15;93.12;98984.00;4990255;28;20634;-80
2023/05/05 11:13:19;;;;;;;10.77;8.02;;;;;;;24.60;87.10;98979.31;4987534;28;20198;-80
2023/05/05 11:15:49;;;;;;;10.00;8.45;;;;;;;24.19;89.08;98971.75;4991999;28;20191;-80
2023/05/05 11:18:35;;;;;;;10.02;8.93;;;;;;;24.12;87.54;98971.66;4988070;28;20199;-80
2023/05/05 11:21:17;;;;;;;9.20;8.27;;;;;;;24.22;84.03;98964.09;4993765;28;20206;-80
2023/05/05 11:23:47;;;;;;;10.80;8.18;;;;;;;23.73;95.25;98960.31;4990281;28;20218;-80
2023/05/05 11:26:17;;;;;;;10.10;8.27;;;;;;;23.69;92.63;98949.03;4994594;28;20202;-79
2023/05/05 11:29:00;;;;;;;8.60;7.45;;;;;;;24.14;88.60;98955.25;4991917;28;20645;-80
2023/05/05 11:31:30;;;;;;;12.85;8.40;;;;;;;24.39;84.74;98950.34;4994296;28;20250;-80
2023/05/05 11:34:26;;;;;;;11.10;7.78;;;;;;;24.33;82.19;98948.41;4990208;28;20267;-80
2023/05/05 11:37:01;;;;;;;7.38;6.63;;;;;;;24.35;81.18;98949.91;4986954;28;20192;-80
2023/05/05 11:39:51;;;;;;;7.70;6.53;;;;;;;24.41;77.53;98959.09;4986703;28;20217;-81
2023/05/05 11:42:26;;;;;;;8.27;6.13;;;;;;;24.17;83.26;98958.41;4989973;28;20206;-79
2023/05/05 11:44:54;;;;;;;8.82;7.05;;;;;;;23.29;94.61;98966.53;4989140;28;20226;-79